Pagina principală
METAR-TAF:

METAR-TAF

Aeroporturi :

Corvallis, Oregon, Statele Unite ale Americii

Latitudine: 44-30N, longitudine: 123-17W, elevație: 75 m

Observații meteo curente

Raportul a fost făcut în urmă cu 1 oră și 7 de minute, la 19:56 UTC
Vânt 7 kt de la Nord-est
Temperatură 17°C
Umiditate 48%
Presiune 1017 hPa
Vizibilitate: 16.1 km
Nori împrăștiați la o înălțime de 4000 picior
Nori împrăștiați la o înălțime de 5000 picior

METAR: KCVO 161956Z AUTO 04007KT 10SM SCT040 SCT050 17/06 A3004 RMK AO2 SLP175 T01670061

Ora: 14:03 (21:03 UTC)


TAF: lipsă

Observații și prognoze meteo pentru peste 4.000 de aeroporturi (rapoarte METAR și TAF).

Stațiile disponibile sunt reprezentate pe hartă prin puncte galbene și roșii.

Țineți indicatorul mouse-ului pe punctul dorit pentru a vedea denumirea stației.

Apoi, faceți clic pentru a vedea observațiile și prognozele meteorologice.

Pentru a schimba harta: Pentru mărire, faceți clic pe butoanele verzi cu cruce neagră; pentru micșorare, pe butonul verde cu o liniuță; pentru hărți învecinate, pe săgețile verzi.


METAR-TAF: